Terminal Aerodrome Forecast
Issued by NWS Wilmington, NC

Home | Current Version | Previous Version | Text Only | Print | Product List | Glossary On
Versions: 1 2 3 4 5 6 7 8 9 10 11 12 13 14 15 16 17 18 19 20
000
FTUS42 KILM 282327
TAFILM
TAF
KILM 282327Z 2900/2924 06007KT P6SM SCT040 SCT150
     FM290300 03005KT P6SM FEW150 SCT250
     FM291300 03010KT P6SM SCT030 SCT250
     FM291800 08008KT P6SM FEW050 BKN250=

USA.gov is the U.S. government's official web portal to all federal, state and local government web resources and services.